Terminal Aerodrome Forecast
Issued by NWS

Home | Current Version | Previous Version | Text Only | Print | Product List | Glossary On
Versions: 1 2 3 4 5 6 7 8 9 10 11 12 13 14 15 16 17 18 19 20 21 22 23 24 25 26 27 28 29 30 31 32
000
FTUS45 KREV 231126
TAFCXP
TAF
KCXP 231126Z 2312/2412 VRB04KT P6SM VCSH FEW008 BKN040
     FM231600 VRB04KT P6SM FEW020 BKN050
     FM232200 24006KT P6SM VCSH SCT030 BKN050
     FM240400 VRB03KT P6SM SCT040 BKN070=

USA.gov is the U.S. government's official web portal to all federal, state and local government web resources and services.